Time;durP1;ratioP1;P1;durP2;ratioP2;P2;SDS_P1;SDS_P2;PMS_P1;PMS_P2;Temp;Humidity;BMP_temperature;BMP_pressure;BME280_temperature;BME280_humidity;BME280_pressure;Samples;Min_cycle;Max_cycle;Signal;HPM_P1;HPM_P2
2023/08/16 00:00:38;;;;;;;;;;;;;;;25.69;100.00;98080.94;5092864;28;19920;-81
2023/08/16 00:03:05;;;;;;;;;;;;;;;25.81;100.00;98077.28;5110526;28;20037;-79
2023/08/16 00:05:32;;;;;;;;;;;;;;;25.85;100.00;98075.41;5110932;28;19924;-80
2023/08/16 00:07:59;;;;;;;;;;;;;;;25.89;100.00;98081.75;5092653;28;19928;-80
2023/08/16 00:10:25;;;;;;;;;;;;;;;25.93;100.00;98077.16;5101392;28;19947;-79
2023/08/16 00:12:52;;;;;;;;;;;;;;;25.96;100.00;98076.44;5108661;28;19924;-79
2023/08/16 00:15:18;;;;;;;;;;;;;;;25.96;100.00;98066.28;5122826;28;19924;-80
2023/08/16 00:17:44;;;;;;;;;;;;;;;25.95;100.00;98063.91;5104870;28;19924;-81
2023/08/16 00:20:12;;;;;;;;;;;;;;;25.84;100.00;98057.44;5104317;28;19946;-79
2023/08/16 00:22:39;;;;;;;;;;;;;;;25.66;100.00;98063.28;5104753;28;19931;-79
2023/08/16 00:25:06;;;;;;;;;;;;;;;25.56;100.00;98054.88;5121475;28;19946;-80
2023/08/16 00:27:32;;;;;;;;;;;;;;;25.53;100.00;98056.34;5103151;28;19924;-79
2023/08/16 00:29:59;;;;;;;;;;;;;;;25.30;100.00;98060.88;5122466;28;19967;-80
2023/08/16 00:32:25;;;;;;;;;;;;;;;25.28;100.00;98054.19;5105611;28;19924;-79
2023/08/16 00:34:51;;;;;;;;;;;;;;;25.28;100.00;98044.06;5104988;28;19924;-79
2023/08/16 00:37:19;;;;;;;;;;;;;;;25.31;100.00;98045.28;5119861;28;19920;-80
2023/08/16 00:39:46;;;;;;;;;;;;;;;25.47;100.00;98043.31;5101812;28;19947;-78
2023/08/16 00:42:12;;;;;;;;;;;;;;;25.56;100.00;98049.41;5104677;28;19923;-79
2023/08/16 00:44:38;;;;;;;;;;;;;;;25.62;100.00;98050.72;5104561;28;19927;-78
2023/08/16 00:47:05;;;;;;;;;;;;;;;25.65;100.00;98039.84;5109801;28;19924;-79
2023/08/16 00:49:32;;;;;;;;;;;;;;;25.62;100.00;98034.31;5123158;28;19928;-79
2023/08/16 00:52:00;;;;;;;;;;;;;;;25.67;100.00;98031.28;5106690;28;19955;-79
2023/08/16 00:54:27;;;;;;;;;;;;;;;25.63;100.00;98031.19;5107715;28;19924;-78
2023/08/16 00:56:55;;;;;;;;;;;;;;;25.62;100.00;98034.31;5124668;28;19985;-78
2023/08/16 00:59:21;;;;;;;;;;;;;;;25.60;100.00;98031.91;5104264;28;19924;-78
2023/08/16 01:01:48;;;;;;;;;;;;;;;25.64;100.00;98027.31;5104421;28;19928;-79
2023/08/16 01:04:15;;;;;;;;;;;;;;;25.64;100.00;98024.59;5107636;28;20007;-79
2023/08/16 01:06:41;;;;;;;;;;;;;;;25.61;100.00;98021.75;5107569;28;19951;-79
2023/08/16 01:09:08;;;;;;;;;;;;;;;25.44;100.00;98033.09;5103778;28;19978;-79
2023/08/16 01:11:39;;;;;;;;;;;;;;;25.33;100.00;98041.03;5122298;28;19924;-79
2023/08/16 01:14:08;;;;;;;;;;;;;;;25.29;100.00;98045.63;5124008;28;20586;-79
2023/08/16 01:16:35;;;;;;;;;;;;;;;25.39;100.00;98050.56;5114111;28;19924;-79
2023/08/16 01:19:02;;;;;;;;;;;;;;;25.02;100.00;98062.94;5104578;28;19931;-79
2023/08/16 01:21:31;;;;;;;;;;;;;;;24.81;100.00;98059.66;5103922;28;20373;-78
2023/08/16 01:24:05;;;;;;;;;;;;;;;24.49;100.00;98056.91;5106090;28;19939;-79
2023/08/16 01:26:34;;;;;;;;;;;;;;;24.82;100.00;98059.31;5125394;28;19923;-79
2023/08/16 01:29:01;;;;;;;;;;;;;;;24.93;100.00;98065.06;5105998;28;19957;-80
2023/08/16 01:31:28;;;;;;;;;;;;;;;25.01;100.00;98061.34;5104779;28;19928;-79
2023/08/16 01:33:54;;;;;;;;;;;;;;;25.00;100.00;98078.91;5129443;28;19924;-79
2023/08/16 01:36:21;;;;;;;;;;;;;;;24.31;100.00;98080.19;5131315;28;19908;-79
2023/08/16 01:38:47;;;;;;;;;;;;;;;23.71;100.00;98083.88;5108530;28;19927;-78
2023/08/16 01:41:16;;;;;;;;;;;;;;;23.57;100.00;98097.09;5104932;28;19924;-79
2023/08/16 01:43:45;;;;;;;;;;;;;;;23.19;100.00;98102.88;5104539;28;19920;-78
2023/08/16 01:46:11;;;;;;;;;;;;;;;22.82;100.00;98101.25;5108693;28;19927;-79
2023/08/16 01:48:38;;;;;;;;;;;;;;;22.76;100.00;98110.75;5125283;28;19989;-79
2023/08/16 01:51:05;;;;;;;;;;;;;;;22.64;100.00;98116.16;5103803;28;19924;-78
2023/08/16 01:53:33;;;;;;;;;;;;;;;22.31;100.00;98116.16;5103094;28;19962;-79
2023/08/16 01:56:00;;;;;;;;;;;;;;;22.14;100.00;98125.25;5105349;28;19924;-79
2023/08/16 01:58:26;;;;;;;;;;;;;;;22.12;100.00;98126.72;5106118;28;19958;-79
2023/08/16 02:00:54;;;;;;;;;;;;;;;22.13;100.00;98134.53;5105414;28;19946;-79
2023/08/16 02:03:20;;;;;;;;;;;;;;;22.18;100.00;98130.84;5102977;28;19924;-79
2023/08/16 02:05:46;;;;;;;;;;;;;;;22.42;100.00;98125.50;5121488;28;19936;-80
2023/08/16 02:08:13;;;;;;;;;;;;;;;22.65;100.00;98129.47;5106290;28;19935;-79
2023/08/16 02:10:39;;;;;;;;;;;;;;;22.47;100.00;98128.81;5124372;28;19928;-79
2023/08/16 02:13:06;;;;;;;;;;;;;;;22.45;100.00;98131.06;5103280;28;19924;-80
2023/08/16 02:15:32;;;;;;;;;;;;;;;22.47;100.00;98136.97;5108043;28;19923;-80
2023/08/16 02:18:00;;;;;;;;;;;;;;;22.42;100.00;98136.38;5124500;28;19920;-78
2023/08/16 02:20:26;;;;;;;;;;;;;;;22.46;100.00;98143.56;5123280;28;19943;-80
2023/08/16 02:22:53;;;;;;;;;;;;;;;22.94;100.00;98142.13;5105143;28;19924;-80
2023/08/16 02:25:19;;;;;;;;;;;;;;;22.95;100.00;98144.50;5120924;28;19920;-78
2023/08/16 02:27:45;;;;;;;;;;;;;;;22.90;100.00;98141.22;5102865;28;19924;-79
2023/08/16 02:30:12;;;;;;;;;;;;;;;23.01;100.00;98139.63;5106161;28;19924;-80
2023/08/16 02:32:38;;;;;;;;;;;;;;;22.96;100.00;98137.16;5105986;28;19927;-79
2023/08/16 02:35:06;;;;;;;;;;;;;;;22.85;100.00;98130.53;5102921;28;19924;-80
2023/08/16 02:37:32;;;;;;;;;;;;;;;22.74;100.00;98130.19;5120609;28;19924;-79
2023/08/16 02:39:59;;;;;;;;;;;;;;;23.02;100.00;98138.50;5122354;28;20528;-80
2023/08/16 02:42:25;;;;;;;;;;;;;;;23.27;100.00;98139.34;5106020;28;19946;-79
2023/08/16 02:44:52;;;;;;;;;;;;;;;23.28;100.00;98125.34;5122403;28;19924;-80
2023/08/16 02:47:18;;;;;;;;;;;;;;;23.53;100.00;98132.44;5115086;28;20011;-79
2023/08/16 02:49:44;;;;;;;;;;;;;;;23.97;100.00;98138.84;5102022;28;19955;-79
2023/08/16 02:52:12;;;;;;;;;;;;;;;24.15;100.00;98133.94;5123686;28;19920;-79
2023/08/16 02:54:39;;;;;;;;;;;;;;;24.28;100.00;98130.03;5122132;28;19971;-79
2023/08/16 02:57:05;;;;;;;;;;;;;;;24.41;100.00;98128.84;5103483;28;19912;-79
2023/08/16 02:59:39;;;;;;;;;;;;;;;24.42;100.00;98130.41;5102434;28;20380;-79
2023/08/16 03:02:05;;;;;;;;;;;;;;;24.55;100.00;98128.41;5105102;28;19923;-79
2023/08/16 03:04:32;;;;;;;;;;;;;;;24.43;100.00;98136.66;5123456;28;19955;-79
2023/08/16 03:06:58;;;;;;;;;;;;;;;24.48;100.00;98136.44;5121214;28;19927;-79
2023/08/16 03:09:26;;;;;;;;;;;;;;;24.28;100.00;98138.22;5101109;28;19924;-79
2023/08/16 03:11:52;;;;;;;;;;;;;;;24.40;100.00;98138.16;5102685;28;19931;-79
2023/08/16 03:14:19;;;;;;;;;;;;;;;24.37;100.00;98132.59;5105191;28;19930;-79
2023/08/16 03:16:46;;;;;;;;;;;;;;;24.33;100.00;98131.69;5128516;28;20018;-79
2023/08/16 03:19:12;;;;;;;;;;;;;;;24.22;100.00;98134.13;5102136;28;19924;-79
2023/08/16 03:21:39;;;;;;;;;;;;;;;24.44;100.00;98139.06;5102283;28;19984;-79
2023/08/16 03:24:06;;;;;;;;;;;;;;;24.55;100.00;98137.41;5106399;28;19924;-79
2023/08/16 03:26:33;;;;;;;;;;;;;;;24.67;100.00;98133.81;5124259;28;19930;-78
2023/08/16 03:29:00;;;;;;;;;;;;;;;24.73;100.00;98141.41;5121334;28;19920;-80
2023/08/16 03:31:26;;;;;;;;;;;;;;;24.78;100.00;98139.56;5101904;28;19980;-79
2023/08/16 03:33:53;;;;;;;;;;;;;;;24.81;100.00;98141.59;5103433;28;20000;-79
2023/08/16 03:36:19;;;;;;;;;;;;;;;24.82;100.00;98140.50;5106408;28;19931;-78
2023/08/16 03:38:45;;;;;;;;;;;;;;;24.81;100.00;98141.59;5125242;28;19920;-78
2023/08/16 03:41:12;;;;;;;;;;;;;;;24.69;100.00;98137.00;5121444;28;19920;-79
2023/08/16 03:43:39;;;;;;;;;;;;;;;24.73;100.00;98146.88;5103893;28;20418;-79
2023/08/16 03:46:07;;;;;;;;;;;;;;;24.76;100.00;98152.81;5109906;28;19920;-79
2023/08/16 03:48:33;;;;;;;;;;;;;;;24.78;100.00;98155.97;5119531;28;19923;-79
2023/08/16 03:50:59;;;;;;;;;;;;;;;24.81;100.00;98149.81;5105680;28;19924;-79
2023/08/16 03:53:26;;;;;;;;;;;;;;;24.75;100.00;98159.41;5106515;28;19924;-79
2023/08/16 03:55:55;;;;;;;;;;;;;;;24.63;100.00;98165.72;5126228;28;19920;-79
2023/08/16 03:58:22;;;;;;;;;;;;;;;24.61;100.00;98162.53;5111110;28;19923;-79
2023/08/16 04:00:50;;;;;;;;;;;;;;;24.64;100.00;98164.56;5110158;28;19916;-79
2023/08/16 04:03:17;;;;;;;;;;;;;;;24.60;100.00;98169.91;5107411;28;19924;-79
2023/08/16 04:05:43;;;;;;;;;;;;;;;24.61;100.00;98176.19;5107404;28;19979;-79
2023/08/16 04:08:09;;;;;;;;;;;;;;;24.60;100.00;98180.06;5098330;28;19908;-79
2023/08/16 04:10:36;;;;;;;;;;;;;;;24.54;100.00;98176.00;5098079;28;19912;-78
2023/08/16 04:13:02;;;;;;;;;;;;;;;24.51;100.00;98174.72;5112740;28;19924;-79
2023/08/16 04:15:29;;;;;;;;;;;;;;;24.54;100.00;98173.28;5111474;28;19943;-79
2023/08/16 04:17:57;;;;;;;;;;;;;;;24.55;100.00;98177.56;5103162;28;19924;-79
2023/08/16 04:20:23;;;;;;;;;;;;;;;24.60;100.00;98174.59;5124185;28;19959;-79
2023/08/16 04:22:50;;;;;;;;;;;;;;;24.59;100.00;98179.28;5109296;28;19924;-79
2023/08/16 04:25:16;;;;;;;;;;;;;;;24.54;100.00;98174.03;5124632;28;19920;-79
2023/08/16 04:27:43;;;;;;;;;;;;;;;24.51;100.00;98185.66;5124959;28;19919;-79
2023/08/16 04:30:10;;;;;;;;;;;;;;;24.53;100.00;98180.66;5117080;28;19928;-78
2023/08/16 04:32:37;;;;;;;;;;;;;;;24.59;100.00;98181.19;5117046;28;19962;-80
2023/08/16 04:35:05;;;;;;;;;;;;;;;24.64;100.00;98189.94;5106170;28;19924;-79
2023/08/16 04:37:32;;;;;;;;;;;;;;;24.69;100.00;98181.50;5110801;28;19926;-78
2023/08/16 04:39:58;;;;;;;;;;;;;;;24.69;100.00;98189.69;5110861;28;20046;-80
2023/08/16 04:42:24;;;;;;;;;;;;;;;24.67;100.00;98189.25;5126845;28;19971;-79
2023/08/16 04:44:51;;;;;;;;;;;;;;;24.64;100.00;98187.19;5107812;28;19927;-79
2023/08/16 04:47:17;;;;;;;;;;;;;;;24.60;100.00;98202.69;5111587;28;19931;-79
2023/08/16 04:49:43;;;;;;;;;;;;;;;24.51;100.00;98196.56;5105065;28;20345;-79
2023/08/16 04:52:11;;;;;;;;;;;;;;;24.57;100.00;98200.66;5114206;28;19959;-80
2023/08/16 04:54:37;;;;;;;;;;;;;;;24.52;100.00;98197.38;5095766;28;19931;-79
2023/08/16 04:57:04;;;;;;;;;;;;;;;24.44;100.00;98203.78;5095934;28;20525;-79
2023/08/16 04:59:30;;;;;;;;;;;;;;;24.47;100.00;98205.81;5104122;28;19931;-80
2023/08/16 05:01:56;;;;;;;;;;;;;;;24.50;100.00;98200.47;5113523;28;19924;-80
2023/08/16 05:04:23;;;;;;;;;;;;;;;24.58;100.00;98201.44;5113820;28;19959;-80
2023/08/16 05:06:49;;;;;;;;;;;;;;;24.61;100.00;98198.81;5104184;28;19927;-80
2023/08/16 05:09:17;;;;;;;;;;;;;;;24.61;100.00;98204.28;5104286;28;19920;-79
2023/08/16 05:11:43;;;;;;;;;;;;;;;24.57;100.00;98208.06;5104202;28;19924;-80
2023/08/16 05:14:10;;;;;;;;;;;;;;;24.58;100.00;98209.66;5103583;28;19924;-79
2023/08/16 05:16:36;;;;;;;;;;;;;;;24.58;100.00;98202.25;5103952;28;19920;-79
2023/08/16 05:19:03;;;;;;;;;;;;;;;24.50;100.00;98205.13;5104000;28;19924;-79
2023/08/16 05:21:29;;;;;;;;;;;;;;;24.45;100.00;98199.94;5121757;28;20038;-79
2023/08/16 05:23:56;;;;;;;;;;;;;;;24.33;100.00;98202.66;5105507;28;19924;-81
2023/08/16 05:26:23;;;;;;;;;;;;;;;24.39;100.00;98206.75;5107204;28;19946;-79
2023/08/16 05:28:50;;;;;;;;;;;;;;;24.44;100.00;98207.31;5124248;28;19924;-79
2023/08/16 05:31:16;;;;;;;;;;;;;;;24.49;100.00;98206.25;5104099;28;19924;-79
2023/08/16 05:33:43;;;;;;;;;;;;;;;24.48;100.00;98202.72;5103391;28;19924;-80
2023/08/16 05:36:09;;;;;;;;;;;;;;;24.44;100.00;98201.84;5121857;28;19978;-79
2023/08/16 05:38:36;;;;;;;;;;;;;;;24.58;100.00;98201.44;5103396;28;19952;-79
2023/08/16 05:41:04;;;;;;;;;;;;;;;24.58;100.00;98198.72;5106116;28;19987;-79
2023/08/16 05:43:31;;;;;;;;;;;;;;;24.56;100.00;98204.53;5106910;28;20014;-79
2023/08/16 05:45:58;;;;;;;;;;;;;;;24.55;100.00;98207.59;5124684;28;19923;-79
2023/08/16 05:48:24;;;;;;;;;;;;;;;24.51;100.00;98212.19;5124680;28;19923;-81
2023/08/16 05:50:50;;;;;;;;;;;;;;;24.51;100.00;98214.94;5123596;28;19942;-79
2023/08/16 05:53:17;;;;;;;;;;;;;;;24.56;100.00;98218.19;5120871;28;19941;-79
2023/08/16 05:55:43;;;;;;;;;;;;;;;24.59;100.00;98216.69;5115315;28;19924;-79
2023/08/16 05:58:10;;;;;;;;;;;;;;;24.00;100.00;98228.19;5103140;28;19932;-79
2023/08/16 06:00:37;;;;;;;;;;;;;;;23.58;100.00;98226.84;5102750;28;20391;-79
2023/08/16 06:03:04;;;;;;;;;;;;;;;23.30;100.00;98229.38;5123522;28;19928;-78
2023/08/16 06:05:30;;;;;;;;;;;;;;;23.33;100.00;98230.63;5106236;28;19924;-79
2023/08/16 06:07:57;;;;;;;;;;;;;;;23.48;100.00;98222.63;5122239;28;19923;-80
2023/08/16 06:10:23;;;;;;;;;;;;;;;23.54;100.00;98226.72;5120877;28;20537;-79
2023/08/16 06:12:50;;;;;;;;;;;;;;;23.78;100.00;98225.91;5103482;28;19931;-78
2023/08/16 06:15:16;;;;;;;;;;;;;;;23.93;100.00;98224.44;5124101;28;19920;-77
2023/08/16 06:17:44;;;;;;;;;;;;;;;24.00;100.00;98222.72;5106526;28;19979;-79
2023/08/16 06:20:11;;;;;;;;;;;;;;;23.99;100.00;98223.06;5094358;28;19924;-79
2023/08/16 06:22:38;;;;;;;;;;;;;;;23.78;100.00;98217.75;5112322;28;19920;-79
2023/08/16 06:25:05;;;;;;;;;;;;;;;23.81;100.00;98216.25;5112083;28;20055;-79
2023/08/16 06:27:31;;;;;;;;;;;;;;;23.76;100.00;98216.50;5112169;28;19920;-80
2023/08/16 06:29:58;;;;;;;;;;;;;;;23.59;100.00;98215.56;5112233;28;19920;-79
2023/08/16 06:32:24;;;;;;;;;;;;;;;23.59;100.00;98217.50;5095729;28;20609;-79
2023/08/16 06:34:52;;;;;;;;;;;;;;;23.81;100.00;98227.16;5121789;28;19954;-79
2023/08/16 06:37:18;;;;;;;;;;;;;;;24.10;100.00;98232.38;5124858;28;19979;-80
2023/08/16 06:39:45;;;;;;;;;;;;;;;24.28;100.00;98222.81;5123447;28;19924;-79
2023/08/16 06:42:11;;;;;;;;;;;;;;;24.42;100.00;98225.16;5102131;28;19924;-79
2023/08/16 06:44:38;;;;;;;;;;;;;;;24.52;100.00;98230.16;5119186;28;19936;-79
2023/08/16 06:47:04;;;;;;;;;;;;;;;24.58;100.00;98235.03;5128823;28;19970;-79
2023/08/16 06:49:31;;;;;;;;;;;;;;;24.51;100.00;98237.53;5102356;28;19954;-78
2023/08/16 06:51:59;;;;;;;;;;;;;;;24.51;100.00;98237.53;5122000;28;19996;-79
2023/08/16 06:54:26;;;;;;;;;;;;;;;24.45;100.00;98249.84;5122973;28;19930;-80
2023/08/16 06:56:57;;;;;;;;;;;;;;;24.47;100.00;98238.59;5123168;28;19935;-80
2023/08/16 06:59:24;;;;;;;;;;;;;;;24.50;100.00;98246.09;5102464;28;20534;-79
2023/08/16 07:01:50;;;;;;;;;;;;;;;24.65;100.00;98248.09;5102518;28;19935;-79
2023/08/16 07:04:16;;;;;;;;;;;;;;;24.69;100.00;98246.25;5123517;28;19947;-79
2023/08/16 07:06:43;;;;;;;;;;;;;;;24.75;100.00;98246.81;5123301;28;19931;-79
2023/08/16 07:09:10;;;;;;;;;;;;;;;24.85;100.00;98241.66;5120202;28;19928;-80
2023/08/16 07:11:37;;;;;;;;;;;;;;;24.64;100.00;98247.28;5119864;28;19928;-80
2023/08/16 07:14:03;;;;;;;;;;;;;;;24.75;100.00;98249.53;5104310;28;19920;-79
2023/08/16 07:16:31;;;;;;;;;;;;;;;24.40;100.00;98246.56;5112094;28;19934;-78
2023/08/16 07:18:57;;;;;;;;;;;;;;;24.31;100.00;98246.69;5103620;28;19979;-79
2023/08/16 07:21:23;;;;;;;;;;;;;;;24.50;100.00;98254.28;5102230;28;19932;-79
2023/08/16 07:23:50;;;;;;;;;;;;;;;24.75;100.00;98239.41;5121681;28;19935;-79
2023/08/16 07:26:18;;;;;;;;;;;;;;;24.73;100.00;98247.94;5109902;28;19908;-80
2023/08/16 07:28:44;;;;;;;;;;;;;;;24.70;100.00;98251.34;5112408;28;19919;-79
2023/08/16 07:31:10;;;;;;;;;;;;;;;24.59;100.00;98253.00;5108725;28;19927;-78
2023/08/16 07:33:37;;;;;;;;;;;;;;;24.62;100.00;98249.56;5108626;28;19926;-78
2023/08/16 07:36:03;;;;;;;;;;;;;;;24.77;100.00;98253.50;5110804;28;19920;-79
2023/08/16 07:38:32;;;;;;;;;;;;;;;24.87;100.00;98253.03;5111144;28;19934;-79
2023/08/16 07:40:59;;;;;;;;;;;;;;;24.66;100.00;98261.38;5108266;28;20682;-79
2023/08/16 07:43:28;;;;;;;;;;;;;;;24.54;100.00;98257.91;5106848;28;19935;-79
2023/08/16 07:46:10;;;;;;;;;;;;;;;24.51;100.00;98259.38;5112637;28;19930;-79
2023/08/16 07:48:36;;;;;;;;;;;;;;;24.61;100.00;98253.44;5102519;28;19920;-79
2023/08/16 07:51:03;;;;;;;;;;;;;;;24.79;100.00;98253.94;5120017;28;19995;-79
2023/08/16 07:53:29;;;;;;;;;;;;;;;24.77;100.00;98260.91;5119379;28;19924;-79
2023/08/16 07:55:56;;;;;;;;;;;;;;;24.63;100.00;98259.34;5102405;28;19931;-79
2023/08/16 07:58:26;;;;;;;;;;;;;;;24.65;100.00;98268.00;5104924;28;19923;-79
2023/08/16 08:00:55;;;;;;;;;;;;;;;24.70;100.00;98261.50;5103649;28;20269;-79
2023/08/16 08:03:22;;;;;;;;;;;;;;;24.58;100.00;98267.78;5101148;28;19979;-79
2023/08/16 08:05:50;;;;;;;;;;;;;;;24.57;100.00;98270.88;5119254;28;20132;-79
2023/08/16 08:08:16;;;;;;;;;;;;;;;24.80;100.00;98271.94;5122637;28;19934;-79
2023/08/16 08:10:43;;;;;;;;;;;;;;;24.67;100.00;98264.91;5122721;28;19924;-78
2023/08/16 08:13:10;;;;;;;;;;;;;;;24.68;100.00;98270.03;5092784;28;20396;-79
2023/08/16 08:15:36;;;;;;;;;;;;;;;24.81;100.00;98262.63;5106292;28;19927;-79
2023/08/16 08:18:04;;;;;;;;;;;;;;;24.83;100.00;98260.34;5122257;28;19932;-80
2023/08/16 08:20:31;;;;;;;;;;;;;;;24.87;100.00;98263.97;5104087;28;19974;-78
2023/08/16 08:22:57;;;;;;;;;;;;;;;25.06;100.00;98255.13;5102549;28;19963;-79
2023/08/16 08:25:24;;;;;;;;;;;;;;;25.21;100.00;98259.81;5118786;28;19947;-78
2023/08/16 08:27:51;;;;;;;;;;;;;;;24.99;100.00;98258.47;5119576;28;19955;-78
2023/08/16 08:30:18;;;;;;;;;;;;;;;24.96;100.00;98252.88;5103982;28;19930;-78
2023/08/16 08:32:45;;;;;;;;;;;;;;;25.07;100.00;98254.75;5104341;28;19924;-78
2023/08/16 08:35:12;;;;;;;;;;;;;;;24.81;100.00;98248.16;5100806;28;19924;-79
2023/08/16 08:37:39;;;;;;;;;;;;;;;24.93;100.00;98239.94;5118447;28;19950;-80
2023/08/16 08:40:06;;;;;;;;;;;;;;;25.08;100.00;98244.63;5121402;28;19935;-79
2023/08/16 08:42:32;;;;;;;;;;;;;;;24.99;100.00;98236.59;5103711;28;19924;-79
2023/08/16 08:45:01;;;;;;;;;;;;;;;24.81;100.00;98242.69;5120016;28;19971;-79
2023/08/16 08:47:29;;;;;;;;;;;;;;;24.83;100.00;98237.69;5106247;28;19939;-79
2023/08/16 08:49:56;;;;;;;;;;;;;;;24.96;100.00;98229.09;5101647;28;19983;-79
2023/08/16 08:52:25;;;;;;;;;;;;;;;24.98;100.00;98228.72;5104081;28;19930;-79
2023/08/16 08:54:51;;;;;;;;;;;;;;;25.06;100.00;98234.06;5120662;28;19932;-79
2023/08/16 08:57:19;;;;;;;;;;;;;;;25.10;100.00;98236.88;5100586;28;19941;-78
2023/08/16 08:59:49;;;;;;;;;;;;;;;25.03;100.00;98242.97;5117417;28;19920;-79
2023/08/16 09:02:17;;;;;;;;;;;;;;;24.96;100.00;98248.22;5121939;28;19919;-79
2023/08/16 09:04:44;;;;;;;;;;;;;;;25.07;100.00;98243.84;5121976;28;19951;-80
2023/08/16 09:07:11;;;;;;;;;;;;;;;25.16;100.00;98258.13;5110442;28;19928;-80
2023/08/16 09:09:40;;;;;;;;;;;;;;;25.18;100.00;98252.31;5113698;28;19924;-80
2023/08/16 09:12:07;;;;;;;;;;;;;;;25.26;100.00;98245.88;5112631;28;20015;-79
2023/08/16 09:14:33;;;;;;;;;;;;;;;25.36;100.00;98239.91;5104112;28;19981;-80
2023/08/16 09:16:59;;;;;;;;;;;;;;;25.43;100.00;98248.31;5130464;28;19924;-79
2023/08/16 09:19:26;;;;;;;;;;;;;;;25.58;100.00;98242.06;5122196;28;19966;-78
2023/08/16 09:21:52;;;;;;;;;;;;;;;25.74;100.00;98236.59;5122877;28;19950;-79
2023/08/16 09:24:23;;;;;;;;;;;;;;;25.77;100.00;98244.91;5107923;28;19983;-79
2023/08/16 09:26:52;;;;;;;;;;;;;;;25.77;100.00;98244.91;5125986;28;19920;-79
2023/08/16 09:29:18;;;;;;;;;;;;;;;25.90;100.00;98242.06;5103641;28;19931;-78
2023/08/16 09:31:46;;;;;;;;;;;;;;;25.88;100.00;98245.13;5122258;28;19925;-79
2023/08/16 09:34:13;;;;;;;;;;;;;;;25.91;100.00;98244.44;5124578;28;19962;-79
2023/08/16 09:36:42;;;;;;;;;;;;;;;25.89;100.00;98248.66;5125007;28;19935;-79
2023/08/16 09:39:09;;;;;;;;;;;;;;;25.94;100.00;98248.38;5103471;28;19931;-79
2023/08/16 09:41:35;;;;;;;;;;;;;;;26.03;100.00;98240.78;5103407;28;19930;-79
2023/08/16 09:44:05;;;;;;;;;;;;;;;25.88;100.00;98241.59;5105776;28;19971;-80
2023/08/16 09:46:32;;;;;;;;;;;;;;;25.91;100.00;98232.69;5130537;28;19928;-79
2023/08/16 09:49:02;;;;;;;;;;;;;;;25.95;100.00;98228.91;5104851;28;19978;-80
2023/08/16 09:51:29;;;;;;;;;;;;;;;26.04;100.00;98228.69;5103240;28;19924;-80
2023/08/16 09:53:56;;;;;;;;;;;;;;;26.14;100.00;98223.47;5122756;28;20639;-80
2023/08/16 09:56:24;;;;;;;;;;;;;;;26.21;100.00;98228.34;5106334;28;20058;-79
2023/08/16 09:58:51;;;;;;;;;;;;;;;26.23;100.00;98215.09;5123724;28;19924;-80
2023/08/16 10:01:19;;;;;;;;;;;;;;;26.28;100.00;98225.75;5121006;28;19924;-80
2023/08/16 10:03:51;;;;;;;;;;;;;;;26.40;100.00;98219.38;5121437;28;19970;-79
2023/08/16 10:06:18;;;;;;;;;;;;;;;26.50;100.00;98218.78;5124394;28;19923;-80
2023/08/16 10:08:45;;;;;;;;;;;;;;;26.55;100.00;98222.03;5106558;28;19924;-81
2023/08/16 10:11:11;;;;;;;;;;;;;;;26.60;100.00;98221.75;5103287;28;19923;-80
2023/08/16 10:13:40;;;;;;;;;;;;;;;26.56;100.00;98215.41;5120934;28;19924;-80
2023/08/16 10:16:09;;;;;;;;;;;;;;;26.59;100.00;98214.69;5127131;28;20427;-80
2023/08/16 10:18:37;;;;;;;;;;;;;;;26.80;100.00;98215.13;5125193;28;19924;-79
2023/08/16 10:21:03;;;;;;;;;;;;;;;26.86;100.00;98212.13;5110451;28;19934;-81
2023/08/16 10:23:31;;;;;;;;;;;;;;;26.81;100.00;98205.75;5121463;28;19924;-80
2023/08/16 10:26:01;;;;;;;;;;;;;;;26.91;100.00;98203.59;5104815;28;19975;-79
2023/08/16 10:28:28;;;;;;;;;;;;;;;27.02;100.00;98205.38;5124979;28;19935;-81
2023/08/16 10:30:57;;;;;;;;;;;;;;;27.09;100.00;98204.69;5105290;28;20443;-79
2023/08/16 10:33:25;;;;;;;;;;;;;;;27.11;100.00;98207.91;5102708;28;19931;-79
2023/08/16 10:35:53;;;;;;;;;;;;;;;27.06;100.00;98200.75;5105101;28;19935;-80
2023/08/16 10:38:20;;;;;;;;;;;;;;;27.24;100.00;98201.06;5107828;28;19924;-79
2023/08/16 10:40:56;;;;;;;;;;;;;;;27.18;100.00;98199.78;5125174;28;19919;-79
2023/08/16 10:43:31;;;;;;;;;;;;;;;27.18;100.00;98199.78;5094537;28;19978;-79
2023/08/16 10:45:57;;;;;;;;;;;;;;;27.24;100.00;98195.56;5110247;28;19946;-79
2023/08/16 10:48:23;;;;;;;;;;;;;;;27.32;100.00;98186.31;5105373;28;19920;-79
2023/08/16 10:50:56;;;;;;;;;;;;;;;27.43;100.00;98186.53;5105833;28;19924;-78
2023/08/16 10:53:24;;;;;;;;;;;;;;;27.49;100.00;98180.38;5104410;28;19924;-79
2023/08/16 10:55:51;;;;;;;;;;;;;;;27.49;100.00;98188.59;5127927;28;19927;-79
2023/08/16 10:58:22;;;;;;;;;;;;;;;27.60;100.00;98191.53;5130844;28;19919;-79
2023/08/16 11:00:55;;;;;;;;;;;;;;;27.66;100.00;98184.56;5128309;28;19979;-78
2023/08/16 11:03:21;;;;;;;;;;;;;;;27.59;100.00;98176.22;5106307;28;19991;-78
2023/08/16 11:05:48;;;;;;;;;;;;;;;27.79;100.00;98177.72;5123570;28;19924;-79
2023/08/16 11:08:16;;;;;;;;;;;;;;;27.74;100.00;98178.81;5127261;28;19930;-79
2023/08/16 11:10:43;;;;;;;;;;;;;;;27.86;100.00;98177.78;5106243;28;19927;-80
2023/08/16 11:13:11;;;;;;;;;;;;;;;27.88;100.00;98179.00;5101691;28;19937;-79
2023/08/16 11:15:37;;;;;;;;;;;;;;;27.86;100.00;98175.06;5108142;28;19924;-80
2023/08/16 11:18:05;;;;;;;;;;;;;;;27.86;100.00;98178.59;5125094;28;19959;-82
2023/08/16 11:20:32;;;;;;;;;;;;;;;27.83;100.00;98176.59;5107722;28;19924;-79
2023/08/16 11:22:59;;;;;;;;;;;;;;;27.74;100.00;98175.25;5105513;28;19930;-79
2023/08/16 11:25:33;;;;;;;;;;;;;;;27.75;100.00;98177.66;5103837;28;19924;-79
2023/08/16 11:28:00;;;;;;;;;;;;;;;27.94;100.00;98165.78;5104743;28;19930;-81
2023/08/16 11:30:27;;;;;;;;;;;;;;;28.09;100.00;98175.03;5122620;28;19935;-79
2023/08/16 11:32:53;;;;;;;;;;;;;;;28.19;100.00;98163.41;5122063;28;19927;-80
2023/08/16 11:35:20;;;;;;;;;;;;;;;28.30;100.00;98164.31;5101373;28;19931;-80
2023/08/16 11:37:46;;;;;;;;;;;;;;;28.31;100.00;98171.41;5119858;28;19924;-82
2023/08/16 11:40:13;;;;;;;;;;;;;;;28.25;100.00;98159.16;5105018;28;20003;-79
2023/08/16 11:42:41;;;;;;;;;;;;;;;28.28;100.00;98158.41;5104947;28;19946;-80
2023/08/16 11:45:20;;;;;;;;;;;;;;;28.37;100.00;98150.69;5121458;28;19924;-80
2023/08/16 11:47:50;;;;;;;;;;;;;;;28.53;100.00;98156.78;5121571;28;19920;-80
2023/08/16 11:50:16;;;;;;;;;;;;;;;28.47;100.00;98155.53;5105129;28;19920;-79
2023/08/16 11:52:42;;;;;;;;;;;;;;;28.50;100.00;98146.53;5105059;28;19931;-79
2023/08/16 11:55:10;;;;;;;;;;;;;;;28.32;100.00;98151.00;5119527;28;20010;-80
2023/08/16 11:57:45;;;;;;;;;;;;;;;28.35;100.00;98144.75;5100825;28;19924;-80
2023/08/16 12:00:14;;;;;;;;;;;;;;;28.63;100.00;98138.78;5092417;28;19927;-80
2023/08/16 12:02:42;;;;;;;;;;;;;;;28.62;100.00;98137.22;5093230;28;19979;-80
2023/08/16 12:05:09;;;;;;;;;;;;;;;28.77;100.00;98141.75;5111248;28;19946;-80
2023/08/16 12:07:41;;;;;;;;;;;;;;;28.80;100.00;98144.53;5093436;28;19933;-79
2023/08/16 12:10:08;;;;;;;;;;;;;;;28.89;100.00;98145.03;5110972;28;19920;-79
2023/08/16 12:12:35;;;;;;;;;;;;;;;28.54;100.00;98136.34;5100733;28;19924;-80
2023/08/16 12:15:04;;;;;;;;;;;;;;;28.68;100.00;98131.06;5118452;28;19924;-80
2023/08/16 12:17:30;;;;;;;;;;;;;;;28.80;100.00;98133.53;5106301;28;19924;-79
2023/08/16 12:19:56;;;;;;;;;;;;;;;28.75;100.00;98131.13;5102212;28;19927;-81
2023/08/16 12:22:23;;;;;;;;;;;;;;;28.89;100.00;98125.78;5104379;28;19923;-81
2023/08/16 12:24:53;;;;;;;;;;;;;;;28.85;100.00;98126.88;5103478;28;19987;-80
2023/08/16 12:27:20;;;;;;;;;;;;;;;28.98;100.00;98130.16;5119039;28;19955;-80
2023/08/16 12:29:46;;;;;;;;;;;;;;;29.13;100.00;98123.63;5117665;28;19924;-79
2023/08/16 12:32:14;;;;;;;;;;;;;;;29.17;100.00;98122.50;5104075;28;19959;-79
2023/08/16 12:34:40;;;;;;;;;;;;;;;29.20;100.00;98134.69;5122246;28;19966;-80